sensor_id;sensor_type;location;lat;lon;timestamp;pressure;altitude;pressure_sealevel;temperature;humidity
79136;BME280;68533;51.090;17.216;2023-05-24T00:00:16;100018.19;;;14.40;88.04
79136;BME280;68533;51.090;17.216;2023-05-24T00:03:02;100013.91;;;14.33;88.48
79136;BME280;68533;51.090;17.216;2023-05-24T00:05:29;100011.97;;;14.34;88.44
79136;BME280;68533;51.090;17.216;2023-05-24T00:07:56;100010.19;;;14.38;88.45
79136;BME280;68533;51.090;17.216;2023-05-24T00:10:22;100013.91;;;14.33;89.29
79136;BME280;68533;51.090;17.216;2023-05-24T00:12:48;100024.41;;;14.23;89.46
79136;BME280;68533;51.090;17.216;2023-05-24T00:15:14;100021.50;;;14.19;89.87
79136;BME280;68533;51.090;17.216;2023-05-24T00:17:40;100023.03;;;14.03;91.30
79136;BME280;68533;51.090;17.216;2023-05-24T00:20:10;100021.22;;;13.98;91.64
79136;BME280;68533;51.090;17.216;2023-05-24T00:22:37;100023.69;;;13.78;93.03
79136;BME280;68533;51.090;17.216;2023-05-24T00:25:04;100030.34;;;13.54;93.35
79136;BME280;68533;51.090;17.216;2023-05-24T00:27:30;100022.00;;;13.46;93.83
79136;BME280;68533;51.090;17.216;2023-05-24T00:29:56;100026.22;;;13.30;94.96
79136;BME280;68533;51.090;17.216;2023-05-24T00:32:22;100022.88;;;13.19;95.43
79136;BME280;68533;51.090;17.216;2023-05-24T00:34:48;100027.09;;;13.16;95.72
79136;BME280;68533;51.090;17.216;2023-05-24T00:37:14;100032.19;;;13.09;96.51
79136;BME280;68533;51.090;17.216;2023-05-24T00:39:40;100025.75;;;13.14;96.21
79136;BME280;68533;51.090;17.216;2023-05-24T00:42:06;100031.81;;;13.02;96.21
79136;BME280;68533;51.090;17.216;2023-05-24T00:44:34;100033.88;;;12.97;96.08
79136;BME280;68533;51.090;17.216;2023-05-24T00:47:00;100039.88;;;12.85;95.65
79136;BME280;68533;51.090;17.216;2023-05-24T00:49:26;100041.31;;;12.82;95.76
79136;BME280;68533;51.090;17.216;2023-05-24T00:51:53;100037.66;;;12.73;96.42
79136;BME280;68533;51.090;17.216;2023-05-24T00:54:19;100047.97;;;12.68;96.13
79136;BME280;68533;51.090;17.216;2023-05-24T00:56:47;100036.84;;;12.59;95.77
79136;BME280;68533;51.090;17.216;2023-05-24T00:59:13;100048.50;;;12.56;96.23
79136;BME280;68533;51.090;17.216;2023-05-24T01:01:39;100052.59;;;12.59;95.85
79136;BME280;68533;51.090;17.216;2023-05-24T01:04:06;100055.44;;;12.54;96.09
79136;BME280;68533;51.090;17.216;2023-05-24T01:06:46;100057.88;;;12.41;96.84
79136;BME280;68533;51.090;17.216;2023-05-24T01:09:22;100061.16;;;12.30;95.86
79136;BME280;68533;51.090;17.216;2023-05-24T01:17:52;100067.00;;;12.10;95.91
79136;BME280;68533;51.090;17.216;2023-05-24T01:20:22;100072.09;;;12.02;95.75
79136;BME280;68533;51.090;17.216;2023-05-24T01:23:06;100076.66;;;11.93;95.53
79136;BME280;68533;51.090;17.216;2023-05-24T01:28:12;100087.34;;;11.81;95.71
79136;BME280;68533;51.090;17.216;2023-05-24T01:30:39;100092.66;;;11.73;95.83
79136;BME280;68533;51.090;17.216;2023-05-24T01:33:06;100092.97;;;11.71;95.40
79136;BME280;68533;51.090;17.216;2023-05-24T01:35:32;100088.16;;;11.63;96.09
79136;BME280;68533;51.090;17.216;2023-05-24T01:38:05;100091.94;;;11.67;95.40
79136;BME280;68533;51.090;17.216;2023-05-24T01:40:32;100101.13;;;11.62;95.53
79136;BME280;68533;51.090;17.216;2023-05-24T01:45:37;100099.31;;;11.53;95.79
79136;BME280;68533;51.090;17.216;2023-05-24T01:48:18;100097.78;;;11.47;95.35
79136;BME280;68533;51.090;17.216;2023-05-24T01:51:00;100108.00;;;11.22;95.45
79136;BME280;68533;51.090;17.216;2023-05-24T01:53:36;100103.91;;;11.20;95.61
79136;BME280;68533;51.090;17.216;2023-05-24T01:56:05;100114.41;;;11.18;95.88
79136;BME280;68533;51.090;17.216;2023-05-24T01:58:32;100109.78;;;11.13;96.28
79136;BME280;68533;51.090;17.216;2023-05-24T02:00:59;100119.75;;;11.09;96.23
79136;BME280;68533;51.090;17.216;2023-05-24T02:03:26;100114.16;;;10.96;96.32
79136;BME280;68533;51.090;17.216;2023-05-24T02:05:52;100114.72;;;10.93;96.44
79136;BME280;68533;51.090;17.216;2023-05-24T02:08:18;100113.34;;;10.95;96.38
79136;BME280;68533;51.090;17.216;2023-05-24T02:10:44;100119.75;;;10.85;96.33
79136;BME280;68533;51.090;17.216;2023-05-24T02:13:10;100120.06;;;10.84;96.71
79136;BME280;68533;51.090;17.216;2023-05-24T02:15:36;100122.81;;;10.84;96.60
79136;BME280;68533;51.090;17.216;2023-05-24T02:18:02;100121.75;;;10.80;96.66
79136;BME280;68533;51.090;17.216;2023-05-24T02:20:29;100118.47;;;10.78;96.92
79136;BME280;68533;51.090;17.216;2023-05-24T02:23:02;100130.22;;;10.60;96.43
79136;BME280;68533;51.090;17.216;2023-05-24T02:25:29;100133.31;;;10.53;96.62
79136;BME280;68533;51.090;17.216;2023-05-24T02:27:57;100129.34;;;10.40;96.92
79136;BME280;68533;51.090;17.216;2023-05-24T02:30:24;100135.50;;;10.27;95.92
79136;BME280;68533;51.090;17.216;2023-05-24T02:32:50;100136.16;;;10.14;96.55
79136;BME280;68533;51.090;17.216;2023-05-24T02:35:16;100141.72;;;10.04;96.41
79136;BME280;68533;51.090;17.216;2023-05-24T02:37:42;100139.88;;;9.94;97.19
79136;BME280;68533;51.090;17.216;2023-05-24T02:40:09;100141.22;;;9.97;96.83
79136;BME280;68533;51.090;17.216;2023-05-24T02:42:35;100146.78;;;9.87;96.69
79136;BME280;68533;51.090;17.216;2023-05-24T02:45:01;100160.00;;;9.85;96.58
79136;BME280;68533;51.090;17.216;2023-05-24T02:47:27;100154.59;;;9.74;96.56
79136;BME280;68533;51.090;17.216;2023-05-24T02:49:54;100159.53;;;9.72;96.45
79136;BME280;68533;51.090;17.216;2023-05-24T02:52:20;100165.56;;;9.74;96.69
79136;BME280;68533;51.090;17.216;2023-05-24T02:54:49;100162.31;;;9.67;95.85
79136;BME280;68533;51.090;17.216;2023-05-24T02:57:15;100167.25;;;9.65;95.75
79136;BME280;68533;51.090;17.216;2023-05-24T02:59:41;100179.38;;;9.59;95.89
79136;BME280;68533;51.090;17.216;2023-05-24T03:02:08;100179.66;;;9.63;96.32
79136;BME280;68533;51.090;17.216;2023-05-24T03:04:34;100196.41;;;9.61;96.92
79136;BME280;68533;51.090;17.216;2023-05-24T03:07:00;100192.56;;;9.62;96.47
79136;BME280;68533;51.090;17.216;2023-05-24T03:09:28;100189.81;;;9.62;96.03
79136;BME280;68533;51.090;17.216;2023-05-24T03:11:53;100195.81;;;9.69;94.86
79136;BME280;68533;51.090;17.216;2023-05-24T03:14:20;100195.31;;;9.62;95.00
79136;BME280;68533;51.090;17.216;2023-05-24T03:16:48;100198.31;;;9.61;94.63
79136;BME280;68533;51.090;17.216;2023-05-24T03:19:14;100192.84;;;9.61;93.91
79136;BME280;68533;51.090;17.216;2023-05-24T03:21:42;100194.47;;;9.62;94.58
79136;BME280;68533;51.090;17.216;2023-05-24T03:24:08;100191.16;;;9.65;94.55
79136;BME280;68533;51.090;17.216;2023-05-24T03:26:34;100195.03;;;9.59;93.70
79136;BME280;68533;51.090;17.216;2023-05-24T03:29:01;100201.91;;;9.56;94.11
79136;BME280;68533;51.090;17.216;2023-05-24T03:31:27;100196.44;;;9.51;93.79
79136;BME280;68533;51.090;17.216;2023-05-24T03:33:53;100194.53;;;9.52;93.27
79136;BME280;68533;51.090;17.216;2023-05-24T03:36:19;100206.38;;;9.47;92.82
79136;BME280;68533;51.090;17.216;2023-05-24T03:38:49;100198.06;;;9.62;92.51
79136;BME280;68533;51.090;17.216;2023-05-24T03:41:14;100211.28;;;9.55;93.32
79136;BME280;68533;51.090;17.216;2023-05-24T03:43:41;100201.66;;;9.53;92.86
79136;BME280;68533;51.090;17.216;2023-05-24T03:46:07;100204.13;;;9.49;92.89
79136;BME280;68533;51.090;17.216;2023-05-24T03:48:33;100210.16;;;9.51;92.59
79136;BME280;68533;51.090;17.216;2023-05-24T03:50:59;100203.63;;;9.47;92.75
79136;BME280;68533;51.090;17.216;2023-05-24T03:53:25;100203.84;;;9.51;92.76
79136;BME280;68533;51.090;17.216;2023-05-24T03:55:51;100214.00;;;9.50;92.73
79136;BME280;68533;51.090;17.216;2023-05-24T03:58:17;100214.00;;;9.50;91.99
79136;BME280;68533;51.090;17.216;2023-05-24T04:00:43;100212.91;;;9.51;92.31
79136;BME280;68533;51.090;17.216;2023-05-24T04:03:12;100226.63;;;9.51;91.71
79136;BME280;68533;51.090;17.216;2023-05-24T04:05:39;100231.03;;;9.52;91.64
79136;BME280;68533;51.090;17.216;2023-05-24T04:08:05;100237.91;;;9.55;91.25
79136;BME280;68533;51.090;17.216;2023-05-24T04:10:31;100241.75;;;9.54;91.63
79136;BME280;68533;51.090;17.216;2023-05-24T04:12:57;100237.63;;;9.51;91.55
79136;BME280;68533;51.090;17.216;2023-05-24T04:15:23;100236.25;;;9.49;91.79
79136;BME280;68533;51.090;17.216;2023-05-24T04:17:49;100237.63;;;9.51;91.85
79136;BME280;68533;51.090;17.216;2023-05-24T04:20:20;100237.91;;;9.50;91.61
79136;BME280;68533;51.090;17.216;2023-05-24T04:22:50;100250.78;;;9.54;91.92
79136;BME280;68533;51.090;17.216;2023-05-24T04:25:16;100253.53;;;9.54;91.07
79136;BME280;68533;51.090;17.216;2023-05-24T04:27:43;100246.09;;;9.60;91.40
79136;BME280;68533;51.090;17.216;2023-05-24T04:30:10;100253.50;;;9.59;91.51
79136;BME280;68533;51.090;17.216;2023-05-24T04:32:36;100247.47;;;9.57;91.45
79136;BME280;68533;51.090;17.216;2023-05-24T04:35:02;100257.91;;;9.60;90.70
79136;BME280;68533;51.090;17.216;2023-05-24T04:37:29;100254.88;;;9.57;90.73
79136;BME280;68533;51.090;17.216;2023-05-24T04:39:58;100260.63;;;9.65;90.55
79136;BME280;68533;51.090;17.216;2023-05-24T04:42:24;100266.94;;;9.66;90.43
79136;BME280;68533;51.090;17.216;2023-05-24T04:44:51;100260.88;;;9.64;90.20
79136;BME280;68533;51.090;17.216;2023-05-24T04:47:21;100262.22;;;9.71;89.82
79136;BME280;68533;51.090;17.216;2023-05-24T04:49:47;100263.59;;;9.74;90.25
79136;BME280;68533;51.090;17.216;2023-05-24T04:52:14;100270.41;;;9.82;89.31
79136;BME280;68533;51.090;17.216;2023-05-24T04:54:40;100273.13;;;9.87;89.94
79136;BME280;68533;51.090;17.216;2023-05-24T04:57:09;100277.84;;;9.81;89.66
79136;BME280;68533;51.090;17.216;2023-05-24T04:59:35;100272.91;;;9.83;89.83
79136;BME280;68533;51.090;17.216;2023-05-24T05:02:01;100284.94;;;9.87;90.62
79136;BME280;68533;51.090;17.216;2023-05-24T05:04:27;100279.69;;;9.96;88.93
79136;BME280;68533;51.090;17.216;2023-05-24T05:06:53;100290.72;;;9.91;90.26
79136;BME280;68533;51.090;17.216;2023-05-24T05:09:20;100282.38;;;10.06;90.47
79136;BME280;68533;51.090;17.216;2023-05-24T05:11:47;100287.31;;;10.04;89.63
79136;BME280;68533;51.090;17.216;2023-05-24T05:14:13;100293.59;;;10.09;89.89
79136;BME280;68533;51.090;17.216;2023-05-24T05:16:39;100289.47;;;10.17;89.08
79136;BME280;68533;51.090;17.216;2023-05-24T05:19:05;100292.16;;;10.27;89.25
79136;BME280;68533;51.090;17.216;2023-05-24T05:21:32;100293.88;;;10.18;89.74
79136;BME280;68533;51.090;17.216;2023-05-24T05:23:59;100305.63;;;10.24;89.07
79136;BME280;68533;51.090;17.216;2023-05-24T05:26:26;100297.44;;;10.19;89.39
79136;BME280;68533;51.090;17.216;2023-05-24T05:28:53;100311.50;;;10.07;89.70
79136;BME280;68533;51.090;17.216;2023-05-24T05:31:22;100307.06;;;10.11;89.54
79136;BME280;68533;51.090;17.216;2023-05-24T05:33:48;100319.72;;;10.12;89.01
79136;BME280;68533;51.090;17.216;2023-05-24T05:36:15;100310.63;;;10.11;89.07
79136;BME280;68533;51.090;17.216;2023-05-24T05:38:41;100320.19;;;10.29;89.05
79136;BME280;68533;51.090;17.216;2023-05-24T05:41:08;100322.13;;;10.24;89.00
79136;BME280;68533;51.090;17.216;2023-05-24T05:43:34;100326.25;;;10.26;89.37
79136;BME280;68533;51.090;17.216;2023-05-24T05:46:00;100311.50;;;10.51;88.87
79136;BME280;68533;51.090;17.216;2023-05-24T05:48:26;100311.50;;;10.51;88.58
79136;BME280;68533;51.090;17.216;2023-05-24T05:50:52;100322.19;;;10.58;87.88
79136;BME280;68533;51.090;17.216;2023-05-24T05:53:18;100328.03;;;10.46;87.61
79136;BME280;68533;51.090;17.216;2023-05-24T05:55:44;100318.97;;;10.45;86.15
79136;BME280;68533;51.090;17.216;2023-05-24T05:58:10;100331.81;;;10.55;87.30
79136;BME280;68533;51.090;17.216;2023-05-24T06:00:39;100334.84;;;10.54;85.39
79136;BME280;68533;51.090;17.216;2023-05-24T06:03:05;100335.44;;;10.50;85.54
79136;BME280;68533;51.090;17.216;2023-05-24T06:05:31;100332.97;;;10.49;85.60
79136;BME280;68533;51.090;17.216;2023-05-24T06:07:57;100340.66;;;10.47;84.75
79136;BME280;68533;51.090;17.216;2023-05-24T06:10:23;100349.75;;;10.47;83.71
79136;BME280;68533;51.090;17.216;2023-05-24T06:12:49;100348.09;;;10.46;84.08
79136;BME280;68533;51.090;17.216;2023-05-24T06:15:18;100367.00;;;10.58;84.04
79136;BME280;68533;51.090;17.216;2023-05-24T06:17:48;100371.03;;;10.71;84.73
79136;BME280;68533;51.090;17.216;2023-05-24T06:20:14;100369.66;;;10.68;83.19
79136;BME280;68533;51.090;17.216;2023-05-24T06:22:41;100377.13;;;10.63;82.97
79136;BME280;68533;51.090;17.216;2023-05-24T06:25:08;100379.31;;;10.66;83.93
79136;BME280;68533;51.090;17.216;2023-05-24T06:27:34;100376.03;;;10.64;81.91
79136;BME280;68533;51.090;17.216;2023-05-24T06:30:00;100385.34;;;10.68;82.56
79136;BME280;68533;51.090;17.216;2023-05-24T06:32:26;100379.94;;;10.58;81.54
79136;BME280;68533;51.090;17.216;2023-05-24T06:34:52;100381.25;;;10.65;80.98
79136;BME280;68533;51.090;17.216;2023-05-24T06:37:18;100385.88;;;10.70;81.86
79136;BME280;68533;51.090;17.216;2023-05-24T06:39:50;100382.47;;;10.83;81.77
79136;BME280;68533;51.090;17.216;2023-05-24T06:42:16;100379.31;;;10.66;81.39
79136;BME280;68533;51.090;17.216;2023-05-24T06:44:42;100387.13;;;10.87;80.76
79136;BME280;68533;51.090;17.216;2023-05-24T06:47:08;100398.44;;;10.86;79.57
79136;BME280;68533;51.090;17.216;2023-05-24T06:49:35;100388.63;;;11.09;80.30
79136;BME280;68533;51.090;17.216;2023-05-24T06:52:01;100391.22;;;10.95;78.73
79136;BME280;68533;51.090;17.216;2023-05-24T06:54:27;100388.28;;;11.15;78.53
79136;BME280;68533;51.090;17.216;2023-05-24T06:56:53;100387.56;;;11.34;77.54
79136;BME280;68533;51.090;17.216;2023-05-24T06:59:19;100385.28;;;11.70;78.15
79136;BME280;68533;51.090;17.216;2023-05-24T07:01:45;100388.84;;;12.18;76.55
79136;BME280;68533;51.090;17.216;2023-05-24T07:04:13;100396.41;;;12.68;74.66
79136;BME280;68533;51.090;17.216;2023-05-24T07:06:39;100394.91;;;12.38;73.83
79136;BME280;68533;51.090;17.216;2023-05-24T07:09:07;100406.16;;;12.42;72.57
79136;BME280;68533;51.090;17.216;2023-05-24T07:11:34;100409.50;;;12.39;74.87
79136;BME280;68533;51.090;17.216;2023-05-24T07:14:01;100414.53;;;12.74;73.03
79136;BME280;68533;51.090;17.216;2023-05-24T07:16:27;100413.63;;;12.60;73.30
79136;BME280;68533;51.090;17.216;2023-05-24T07:18:54;100415.88;;;12.77;72.91
79136;BME280;68533;51.090;17.216;2023-05-24T07:21:20;100427.41;;;12.41;72.85
79136;BME280;68533;51.090;17.216;2023-05-24T07:23:46;100428.72;;;12.25;72.48
79136;BME280;68533;51.090;17.216;2023-05-24T07:26:12;100435.75;;;12.36;73.76
79136;BME280;68533;51.090;17.216;2023-05-24T07:28:38;100438.66;;;12.45;72.39
79136;BME280;68533;51.090;17.216;2023-05-24T07:31:05;100434.59;;;12.19;72.11
79136;BME280;68533;51.090;17.216;2023-05-24T07:33:35;100440.94;;;12.38;75.07
79136;BME280;68533;51.090;17.216;2023-05-24T07:36:05;100443.03;;;12.89;72.85
79136;BME280;68533;51.090;17.216;2023-05-24T07:38:32;100442.94;;;12.94;73.25
79136;BME280;68533;51.090;17.216;2023-05-24T07:41:00;100453.91;;;12.99;72.26
79136;BME280;68533;51.090;17.216;2023-05-24T07:43:29;100464.50;;;12.73;70.99
79136;BME280;68533;51.090;17.216;2023-05-24T07:45:55;100456.91;;;13.02;70.83
79136;BME280;68533;51.090;17.216;2023-05-24T07:48:22;100460.78;;;13.20;70.61
79136;BME280;68533;51.090;17.216;2023-05-24T07:50:49;100463.16;;;12.70;72.08
79136;BME280;68533;51.090;17.216;2023-05-24T07:53:18;100462.25;;;12.56;71.65
79136;BME280;68533;51.090;17.216;2023-05-24T07:55:44;100459.66;;;12.65;73.00
79136;BME280;68533;51.090;17.216;2023-05-24T07:58:11;100468.88;;;12.55;71.48
79136;BME280;68533;51.090;17.216;2023-05-24T08:00:37;100469.41;;;12.57;72.89
79136;BME280;68533;51.090;17.216;2023-05-24T08:03:04;100460.47;;;12.65;73.32
79136;BME280;68533;51.090;17.216;2023-05-24T08:05:30;100461.59;;;12.22;72.22
79136;BME280;68533;51.090;17.216;2023-05-24T08:07:57;100466.03;;;12.60;73.47
79136;BME280;68533;51.090;17.216;2023-05-24T08:10:23;100467.34;;;13.24;71.87
79136;BME280;68533;51.090;17.216;2023-05-24T08:12:50;100461.16;;;13.13;69.78
79136;BME280;68533;51.090;17.216;2023-05-24T08:15:19;100466.28;;;13.20;69.88
79136;BME280;68533;51.090;17.216;2023-05-24T08:17:45;100468.91;;;13.30;69.02
79136;BME280;68533;51.090;17.216;2023-05-24T08:20:11;100472.53;;;13.44;69.82
79136;BME280;68533;51.090;17.216;2023-05-24T08:22:41;100477.19;;;13.30;68.87
79136;BME280;68533;51.090;17.216;2023-05-24T08:25:08;100466.72;;;12.90;70.86
79136;BME280;68533;51.090;17.216;2023-05-24T08:27:35;100476.16;;;12.89;71.14
79136;BME280;68533;51.090;17.216;2023-05-24T08:30:01;100480.09;;;13.20;70.46
79136;BME280;68533;51.090;17.216;2023-05-24T08:32:29;100483.59;;;13.07;72.73
79136;BME280;68533;51.090;17.216;2023-05-24T08:34:55;100474.06;;;13.18;71.09
79136;BME280;68533;51.090;17.216;2023-05-24T08:37:21;100483.97;;;13.38;70.11
79136;BME280;68533;51.090;17.216;2023-05-24T08:39:48;100484.94;;;12.91;69.93
79136;BME280;68533;51.090;17.216;2023-05-24T08:42:15;100483.19;;;13.18;70.64
79136;BME280;68533;51.090;17.216;2023-05-24T08:44:51;100490.63;;;13.69;69.15
79136;BME280;68533;51.090;17.216;2023-05-24T08:47:21;100486.59;;;13.62;68.60
79136;BME280;68533;51.090;17.216;2023-05-24T08:49:49;100487.41;;;13.30;69.13
79136;BME280;68533;51.090;17.216;2023-05-24T08:52:15;100488.03;;;13.59;68.37
79136;BME280;68533;51.090;17.216;2023-05-24T08:54:42;100493.28;;;13.74;68.30
79136;BME280;68533;51.090;17.216;2023-05-24T08:57:09;100500.66;;;13.79;68.64
79136;BME280;68533;51.090;17.216;2023-05-24T08:59:40;100504.75;;;13.68;68.47
79136;BME280;68533;51.090;17.216;2023-05-24T09:02:13;100495.63;;;14.13;67.73
79136;BME280;68533;51.090;17.216;2023-05-24T09:04:40;100515.16;;;14.30;66.64
79136;BME280;68533;51.090;17.216;2023-05-24T09:07:11;100506.09;;;14.44;66.18
79136;BME280;68533;51.090;17.216;2023-05-24T09:09:41;100508.53;;;14.86;66.54
79136;BME280;68533;51.090;17.216;2023-05-24T09:12:14;100506.69;;;14.82;62.55
79136;BME280;68533;51.090;17.216;2023-05-24T09:14:46;100505.84;;;14.95;63.41
79136;BME280;68533;51.090;17.216;2023-05-24T09:17:12;100517.22;;;14.25;63.43
79136;BME280;68533;51.090;17.216;2023-05-24T09:19:46;100518.31;;;14.43;63.82
79136;BME280;68533;51.090;17.216;2023-05-24T09:22:13;100519.78;;;14.90;63.25
79136;BME280;68533;51.090;17.216;2023-05-24T09:24:40;100536.94;;;14.64;64.19
79136;BME280;68533;51.090;17.216;2023-05-24T09:27:06;100527.63;;;14.74;63.36
79136;BME280;68533;51.090;17.216;2023-05-24T09:29:36;100526.06;;;15.98;60.11
79136;BME280;68533;51.090;17.216;2023-05-24T09:32:09;100516.88;;;15.08;59.69
79136;BME280;68533;51.090;17.216;2023-05-24T09:34:38;100522.09;;;15.90;58.68
79136;BME280;68533;51.090;17.216;2023-05-24T09:37:04;100518.78;;;16.11;57.28
79136;BME280;68533;51.090;17.216;2023-05-24T09:39:32;100520.13;;;15.24;61.79
79136;BME280;68533;51.090;17.216;2023-05-24T09:41:58;100515.28;;;15.52;61.46
79136;BME280;68533;51.090;17.216;2023-05-24T09:44:25;100517.59;;;16.34;60.19
79136;BME280;68533;51.090;17.216;2023-05-24T09:47:03;100507.41;;;15.45;59.40
79136;BME280;68533;51.090;17.216;2023-05-24T09:49:32;100514.47;;;15.96;60.17
79136;BME280;68533;51.090;17.216;2023-05-24T09:52:01;100514.25;;;16.15;57.54
79136;BME280;68533;51.090;17.216;2023-05-24T09:54:27;100523.97;;;16.35;59.17
79136;BME280;68533;51.090;17.216;2023-05-24T09:56:54;100520.72;;;16.41;56.80
79136;BME280;68533;51.090;17.216;2023-05-24T09:59:20;100522.16;;;16.30;57.66
79136;BME280;68533;51.090;17.216;2023-05-24T10:01:46;100527.47;;;16.57;59.19
79136;BME280;68533;51.090;17.216;2023-05-24T10:04:18;100535.78;;;15.65;57.41
79136;BME280;68533;51.090;17.216;2023-05-24T10:06:57;100535.81;;;15.51;60.76
79136;BME280;68533;51.090;17.216;2023-05-24T10:09:23;100532.16;;;15.42;60.12
79136;BME280;68533;51.090;17.216;2023-05-24T10:11:51;100548.66;;;15.47;60.63
79136;BME280;68533;51.090;17.216;2023-05-24T10:14:17;100546.91;;;15.51;59.22
79136;BME280;68533;51.090;17.216;2023-05-24T10:16:44;100539.94;;;15.76;61.99
79136;BME280;68533;51.090;17.216;2023-05-24T10:19:10;100541.34;;;15.51;60.21
79136;BME280;68533;51.090;17.216;2023-05-24T10:21:41;100548.31;;;15.84;60.49
79136;BME280;68533;51.090;17.216;2023-05-24T10:24:08;100536.22;;;15.58;60.73
79136;BME280;68533;51.090;17.216;2023-05-24T10:26:39;100539.47;;;15.38;60.83
79136;BME280;68533;51.090;17.216;2023-05-24T10:29:10;100541.72;;;15.36;59.96
79136;BME280;68533;51.090;17.216;2023-05-24T10:31:41;100543.78;;;14.94;62.44
79136;BME280;68533;51.090;17.216;2023-05-24T10:34:09;100545.44;;;14.82;62.72
79136;BME280;68533;51.090;17.216;2023-05-24T10:36:36;100538.50;;;14.43;65.29
79136;BME280;68533;51.090;17.216;2023-05-24T10:39:07;100548.91;;;14.46;63.46
79136;BME280;68533;51.090;17.216;2023-05-24T10:41:39;100545.81;;;14.20;64.44
79136;BME280;68533;51.090;17.216;2023-05-24T10:44:12;100553.81;;;14.35;63.96
79136;BME280;68533;51.090;17.216;2023-05-24T10:47:09;100548.50;;;14.53;65.46
79136;BME280;68533;51.090;17.216;2023-05-24T10:49:53;100550.78;;;14.64;63.77
79136;BME280;68533;51.090;17.216;2023-05-24T10:52:33;100551.09;;;14.63;62.94
79136;BME280;68533;51.090;17.216;2023-05-24T10:57:29;100545.66;;;14.71;61.86
79136;BME280;68533;51.090;17.216;2023-05-24T11:02:53;100544.06;;;15.56;63.01
79136;BME280;68533;51.090;17.216;2023-05-24T11:05:24;100549.16;;;15.49;61.93
79136;BME280;68533;51.090;17.216;2023-05-24T11:07:57;100542.78;;;15.62;62.45
79136;BME280;68533;51.090;17.216;2023-05-24T11:10:30;100558.78;;;15.65;61.32
79136;BME280;68533;51.090;17.216;2023-05-24T11:13:00;100561.09;;;15.36;60.98
79136;BME280;68533;51.090;17.216;2023-05-24T11:15:28;100554.06;;;15.30;61.83
79136;BME280;68533;51.090;17.216;2023-05-24T11:20:43;100559.47;;;15.35;60.54
79136;BME280;68533;51.090;17.216;2023-05-24T11:23:13;100559.75;;;15.47;59.76
79136;BME280;68533;51.090;17.216;2023-05-24T11:25:40;100561.97;;;15.23;62.08
79136;BME280;68533;51.090;17.216;2023-05-24T11:28:11;100567.16;;;15.02;60.92
79136;BME280;68533;51.090;17.216;2023-05-24T11:30:41;100576.06;;;14.99;61.71
79136;BME280;68533;51.090;17.216;2023-05-24T11:33:19;100566.56;;;14.64;62.94
79136;BME280;68533;51.090;17.216;2023-05-24T11:35:45;100573.13;;;14.68;62.55
79136;BME280;68533;51.090;17.216;2023-05-24T11:38:14;100570.44;;;15.04;61.39
79136;BME280;68533;51.090;17.216;2023-05-24T11:40:41;100569.81;;;15.07;60.37
79136;BME280;68533;51.090;17.216;2023-05-24T11:43:18;100575.75;;;15.14;60.59
79136;BME280;68533;51.090;17.216;2023-05-24T11:45:47;100572.19;;;15.36;63.41
79136;BME280;68533;51.090;17.216;2023-05-24T11:48:14;100576.44;;;15.20;61.19
79136;BME280;68533;51.090;17.216;2023-05-24T11:50:45;100579.06;;;15.02;60.88
79136;BME280;68533;51.090;17.216;2023-05-24T11:53:15;100578.38;;;15.19;60.47
79136;BME280;68533;51.090;17.216;2023-05-24T11:55:42;100571.97;;;15.46;60.40
79136;BME280;68533;51.090;17.216;2023-05-24T11:58:24;100574.88;;;15.27;60.36
79136;BME280;68533;51.090;17.216;2023-05-24T12:00:51;100579.34;;;15.50;60.85
79136;BME280;68533;51.090;17.216;2023-05-24T12:03:19;100574.00;;;16.21;59.52
79136;BME280;68533;51.090;17.216;2023-05-24T12:05:46;100566.44;;;16.13;58.40
79136;BME280;68533;51.090;17.216;2023-05-24T12:08:12;100572.13;;;16.08;57.47
79136;BME280;68533;51.090;17.216;2023-05-24T12:10:41;100560.34;;;16.02;59.43
79136;BME280;68533;51.090;17.216;2023-05-24T12:13:22;100563.94;;;16.03;57.23
79136;BME280;68533;51.090;17.216;2023-05-24T12:15:52;100558.66;;;15.70;59.68
79136;BME280;68533;51.090;17.216;2023-05-24T12:18:20;100556.00;;;15.87;58.93
79136;BME280;68533;51.090;17.216;2023-05-24T12:20:49;100568.19;;;16.09;59.75
79136;BME280;68533;51.090;17.216;2023-05-24T12:23:22;100551.75;;;16.43;58.17
79136;BME280;68533;51.090;17.216;2023-05-24T12:25:49;100557.47;;;16.47;56.78
79136;BME280;68533;51.090;17.216;2023-05-24T12:28:18;100552.69;;;16.69;59.45
79136;BME280;68533;51.090;17.216;2023-05-24T12:30:48;100554.28;;;16.62;57.20
79136;BME280;68533;51.090;17.216;2023-05-24T12:33:20;100557.75;;;16.06;57.35
79136;BME280;68533;51.090;17.216;2023-05-24T12:35:47;100557.44;;;16.07;58.21
79136;BME280;68533;51.090;17.216;2023-05-24T12:38:16;100553.88;;;15.84;58.65
79136;BME280;68533;51.090;17.216;2023-05-24T12:40:50;100557.72;;;15.75;58.36
79136;BME280;68533;51.090;17.216;2023-05-24T12:43:18;100561.16;;;15.58;59.73
79136;BME280;68533;51.090;17.216;2023-05-24T12:45:45;100559.59;;;15.66;61.17
79136;BME280;68533;51.090;17.216;2023-05-24T12:48:12;100554.88;;;15.88;59.70
79136;BME280;68533;51.090;17.216;2023-05-24T12:50:38;100564.53;;;15.33;59.83
79136;BME280;68533;51.090;17.216;2023-05-24T12:53:05;100564.56;;;15.41;60.02
79136;BME280;68533;51.090;17.216;2023-05-24T12:55:31;100563.94;;;15.22;59.87
79136;BME280;68533;51.090;17.216;2023-05-24T12:57:57;100562.06;;;15.67;61.11
79136;BME280;68533;51.090;17.216;2023-05-24T13:00:27;100561.91;;;15.95;60.06
79136;BME280;68533;51.090;17.216;2023-05-24T13:02:55;100566.13;;;16.14;60.34
79136;BME280;68533;51.090;17.216;2023-05-24T13:05:24;100554.69;;;15.85;59.59